Time;durP1;ratioP1;P1;durP2;ratioP2;P2;SDS_P1;SDS_P2;PMS_P1;PMS_P2;Temp;Humidity;BMP_temperature;BMP_pressure;BME280_temperature;BME280_humidity;BME280_pressure;Samples;Min_cycle;Max_cycle;Signal;HPM_P1;HPM_P2
2023/03/03 00:00:45;;;;;;;2.40;2.20;;;;;;;10.20;62.46;94650.53;4992886;28;20185;-52
2023/03/03 00:03:16;;;;;;;3.63;2.20;;;;;;;10.20;62.63;94644.63;4992652;28;20237;-49
2023/03/03 00:05:43;;;;;;;3.00;2.60;;;;;;;10.18;62.75;94646.50;4992207;28;20200;-51
2023/03/03 00:08:10;;;;;;;2.70;2.50;;;;;;;10.16;62.72;94644.09;4992693;28;20189;-51
2023/03/03 00:10:37;;;;;;;2.23;2.03;;;;;;;10.15;62.55;94639.13;4992480;28;20216;-50
2023/03/03 00:13:04;;;;;;;2.40;2.20;;;;;;;10.13;62.57;94641.00;4992578;28;20208;-50
2023/03/03 00:15:31;;;;;;;2.47;2.27;;;;;;;10.11;62.69;94637.78;4992243;28;20204;-50
2023/03/03 00:18:00;;;;;;;2.40;2.20;;;;;;;10.10;62.59;94638.69;4990869;28;20193;-50
2023/03/03 00:20:34;;;;;;;2.63;2.43;;;;;;;10.09;62.98;94642.19;4991783;28;20203;-52
2023/03/03 00:23:14;;;;;;;2.37;2.07;;;;;;;10.08;62.87;94641.41;4992729;28;20200;-52
2023/03/03 00:25:44;;;;;;;2.30;2.10;;;;;;;10.05;62.86;94636.56;4972736;28;20224;-54
2023/03/03 00:28:23;;;;;;;2.60;2.30;;;;;;;10.06;63.08;94633.06;4972694;28;20273;-51
2023/03/03 00:30:51;;;;;;;2.73;2.53;;;;;;;10.05;62.88;94641.66;4973156;28;20225;-53
2023/03/03 00:33:28;;;;;;;2.90;2.70;;;;;;;10.03;63.09;94634.16;4973353;28;20202;-53
2023/03/03 00:35:56;;;;;;;2.87;2.60;;;;;;;10.02;62.99;94637.66;4987222;28;20207;-49
2023/03/03 00:38:23;;;;;;;2.17;2.07;;;;;;;10.03;62.98;94625.69;4992431;28;20300;-53
2023/03/03 00:40:50;;;;;;;2.70;2.50;;;;;;;10.03;62.91;94629.03;4992134;28;20272;-53
2023/03/03 00:43:22;;;;;;;2.40;2.20;;;;;;;10.03;62.97;94629.03;4990412;28;20189;-53
2023/03/03 00:45:50;;;;;;;2.60;2.40;;;;;;;10.03;62.93;94615.47;4992092;28;20197;-56
2023/03/03 00:48:24;;;;;;;2.33;2.13;;;;;;;9.97;63.03;94611.72;4991839;28;20247;-51
2023/03/03 00:50:53;;;;;;;2.70;2.50;;;;;;;10.02;62.98;94617.22;4991544;28;20283;-50
2023/03/03 00:53:21;;;;;;;2.63;2.40;;;;;;;10.01;62.90;94607.09;4991795;28;20189;-49
2023/03/03 00:55:49;;;;;;;2.70;2.30;;;;;;;10.02;62.95;94608.75;4991640;28;20229;-49
2023/03/03 00:58:17;;;;;;;3.37;2.50;;;;;;;10.00;62.96;94603.75;4991974;28;20264;-53
2023/03/03 01:00:44;;;;;;;2.30;2.10;;;;;;;10.01;63.16;94602.00;4991839;28;20188;-50
2023/03/03 01:03:14;;;;;;;3.50;2.70;;;;;;;10.00;63.30;94592.72;4991508;28;20197;-50
2023/03/03 01:05:43;;;;;;;2.80;2.60;;;;;;;10.00;63.17;94592.72;4990950;28;20699;-48
2023/03/03 01:08:09;;;;;;;2.50;2.30;;;;;;;10.00;63.18;94587.63;4991443;28;20238;-47
2023/03/03 01:10:40;;;;;;;3.00;2.70;;;;;;;10.00;63.22;94580.75;4991102;28;20193;-50
2023/03/03 01:13:08;;;;;;;2.63;2.43;;;;;;;9.98;63.17;94580.09;4991373;28;20211;-51
2023/03/03 01:15:35;;;;;;;3.13;2.67;;;;;;;10.00;63.10;94579.94;4991473;28;20193;-53
2023/03/03 01:18:02;;;;;;;2.90;2.70;;;;;;;10.00;63.17;94579.94;4991092;28;20189;-50
2023/03/03 01:20:29;;;;;;;3.83;3.10;;;;;;;10.00;63.22;94579.94;4990967;28;20201;-51
2023/03/03 01:22:57;;;;;;;2.40;2.30;;;;;;;10.00;63.10;94582.50;4991389;28;20214;-48
2023/03/03 01:25:24;;;;;;;2.53;2.33;;;;;;;10.00;62.96;94590.97;4991199;28;20185;-48
2023/03/03 01:27:51;;;;;;;3.00;2.70;;;;;;;10.02;63.24;94588.31;4991264;28;20738;-50
2023/03/03 01:30:18;;;;;;;3.00;2.57;;;;;;;10.02;63.18;94585.75;4991201;28;20216;-47
2023/03/03 01:32:44;;;;;;;3.17;2.87;;;;;;;9.98;63.17;94580.09;4990386;28;20235;-51
2023/03/03 01:35:12;;;;;;;2.93;2.63;;;;;;;10.03;63.12;94584.81;4988891;28;20212;-51
2023/03/03 01:37:38;;;;;;;2.87;2.57;;;;;;;10.07;62.79;94587.88;4990879;28;20189;-51
2023/03/03 01:40:14;;;;;;;2.90;2.67;;;;;;;10.07;63.05;94581.03;4991109;28;20251;-49
2023/03/03 01:42:41;;;;;;;3.03;2.70;;;;;;;10.04;63.05;94573.63;4971242;28;20189;-48
2023/03/03 01:45:14;;;;;;;3.10;2.80;;;;;;;10.10;63.14;94583.28;4975105;28;20562;-49
2023/03/03 01:47:46;;;;;;;2.77;2.50;;;;;;;10.10;63.23;94570.50;4990351;28;20189;-53
2023/03/03 01:50:15;;;;;;;2.90;2.60;;;;;;;10.11;63.12;94577.25;4990654;28;20248;-49
2023/03/03 01:52:44;;;;;;;3.83;3.10;;;;;;;10.11;63.33;94573.91;4990867;28;20278;-53
2023/03/03 01:55:18;;;;;;;2.90;2.57;;;;;;;10.13;63.09;94582.22;4990687;28;20236;-52
2023/03/03 01:57:52;;;;;;;2.93;2.33;;;;;;;10.13;62.95;94572.81;4990235;28;20247;-50
2023/03/03 02:00:19;;;;;;;3.00;2.73;;;;;;;10.13;62.96;94572.00;4988702;28;20185;-51
2023/03/03 02:02:47;;;;;;;2.80;2.60;;;;;;;10.15;62.92;94567.56;4990283;28;20245;-52
2023/03/03 02:05:14;;;;;;;4.03;3.10;;;;;;;10.08;63.30;94556.28;4990598;28;20201;-53
2023/03/03 02:07:42;;;;;;;5.00;2.70;;;;;;;10.15;62.96;94565.81;4989165;28;20192;-52
2023/03/03 02:10:12;;;;;;;2.87;2.60;;;;;;;10.15;63.10;94575.25;4990106;28;20704;-52
2023/03/03 02:12:43;;;;;;;3.13;2.80;;;;;;;10.14;62.89;94571.84;4989852;28;20649;-50
2023/03/03 02:15:21;;;;;;;2.97;2.67;;;;;;;10.14;63.20;94573.59;4989848;28;20228;-48
2023/03/03 02:17:50;;;;;;;3.17;2.87;;;;;;;10.13;63.22;94572.81;4989702;28;20189;-49
2023/03/03 02:20:28;;;;;;;2.90;2.70;;;;;;;10.14;63.39;94576.16;4990033;28;20201;-54
2023/03/03 02:23:01;;;;;;;3.50;3.20;;;;;;;10.12;63.30;94572.94;4989964;28;20235;-52
2023/03/03 02:25:34;;;;;;;2.63;2.43;;;;;;;10.11;63.24;94569.59;4989788;28;20602;-48
2023/03/03 02:28:02;;;;;;;2.77;2.57;;;;;;;10.12;63.58;94572.94;4970583;28;20186;-49
2023/03/03 02:30:29;;;;;;;3.40;2.90;;;;;;;10.12;63.38;94568.63;4980505;28;20196;-49
2023/03/03 02:32:56;;;;;;;5.57;2.83;;;;;;;10.14;63.19;94576.16;4989866;28;20216;-52
2023/03/03 02:35:30;;;;;;;2.80;2.60;;;;;;;10.15;63.10;94572.69;4990154;28;20251;-49
2023/03/03 02:38:02;;;;;;;3.13;2.77;;;;;;;10.16;63.35;94566.63;4990232;28;20259;-50
2023/03/03 02:40:33;;;;;;;3.43;2.90;;;;;;;10.16;63.20;94571.72;4989995;28;20189;-50
2023/03/03 02:43:04;;;;;;;3.30;3.00;;;;;;;10.15;63.28;94565.81;4989868;28;20185;-52
2023/03/03 02:45:30;;;;;;;3.13;2.83;;;;;;;10.14;63.36;94564.19;4989950;28;20192;-52
2023/03/03 02:47:57;;;;;;;3.57;2.73;;;;;;;10.14;63.32;94571.84;4989441;28;20607;-55
2023/03/03 02:50:24;;;;;;;3.47;2.93;;;;;;;10.11;63.06;94567.03;4989924;28;20203;-53
2023/03/03 02:52:51;;;;;;;3.80;2.77;;;;;;;10.13;63.29;94567.69;4989856;28;20212;-50
2023/03/03 02:55:17;;;;;;;3.53;2.93;;;;;;;10.13;63.13;94564.34;4989672;28;20235;-50
2023/03/03 02:57:44;;;;;;;3.50;3.00;;;;;;;10.12;63.36;94563.53;4989230;28;20200;-54
2023/03/03 03:00:13;;;;;;;2.67;2.47;;;;;;;10.11;63.45;94561.94;4989931;28;20200;-54
2023/03/03 03:02:40;;;;;;;3.87;2.73;;;;;;;10.13;63.36;94562.59;4989456;28;20237;-54
2023/03/03 03:05:08;;;;;;;3.30;2.80;;;;;;;10.11;63.35;94553.47;4989716;28;20597;-51
2023/03/03 03:07:35;;;;;;;3.40;3.10;;;;;;;10.12;63.33;94555.06;4989105;28;20276;-49
2023/03/03 03:10:02;;;;;;;2.93;2.63;;;;;;;10.11;63.34;94559.38;4989493;28;20733;-54
2023/03/03 03:12:28;;;;;;;3.07;2.87;;;;;;;10.09;63.25;94555.34;4989779;28;20232;-50
2023/03/03 03:14:55;;;;;;;3.50;3.20;;;;;;;10.10;63.41;94556.94;4989308;28;20193;-54
2023/03/03 03:17:23;;;;;;;2.90;2.70;;;;;;;10.10;63.38;94554.38;4989705;28;20208;-55
2023/03/03 03:19:50;;;;;;;3.10;2.80;;;;;;;10.09;63.43;94560.44;4989240;28;20204;-51
2023/03/03 03:22:18;;;;;;;3.17;2.90;;;;;;;10.07;63.40;94552.13;4993374;28;20208;-53
2023/03/03 03:24:45;;;;;;;3.30;3.00;;;;;;;10.04;63.57;94555.75;4993549;28;20306;-53
2023/03/03 03:27:11;;;;;;;2.83;2.63;;;;;;;10.06;63.52;94558.97;4993733;28;20189;-52
2023/03/03 03:29:38;;;;;;;2.97;2.67;;;;;;;10.07;63.52;94552.94;4992644;28;20192;-49
2023/03/03 03:32:06;;;;;;;3.23;2.93;;;;;;;10.05;63.59;94555.59;4993386;28;20266;-50
2023/03/03 03:34:34;;;;;;;3.27;3.00;;;;;;;10.04;63.73;94548.09;4992729;28;20292;-54
2023/03/03 03:37:01;;;;;;;2.80;2.50;;;;;;;10.04;63.54;94555.75;4992846;28;20251;-49
2023/03/03 03:39:27;;;;;;;2.87;2.67;;;;;;;10.02;63.68;94543.13;4992302;28;20247;-49
2023/03/03 03:41:54;;;;;;;3.50;3.10;;;;;;;10.03;63.65;94546.47;4993227;28;20196;-50
2023/03/03 03:44:22;;;;;;;3.20;2.80;;;;;;;10.02;63.70;94544.88;4992576;28;20201;-48
2023/03/03 03:46:49;;;;;;;3.20;2.90;;;;;;;10.00;63.62;94541.63;4992862;28;20197;-49
2023/03/03 03:49:16;;;;;;;3.30;3.00;;;;;;;10.01;63.83;94545.78;4992838;28;20188;-49
2023/03/03 03:51:44;;;;;;;4.07;3.40;;;;;;;9.98;63.92;94540.97;4992558;28;20193;-50
2023/03/03 03:54:11;;;;;;;3.27;3.00;;;;;;;9.96;63.80;94530.88;4992722;28;20233;-47
2023/03/03 03:56:38;;;;;;;2.97;2.77;;;;;;;9.97;63.98;94539.34;4992658;28;20189;-47
2023/03/03 03:59:06;;;;;;;4.33;3.17;;;;;;;9.96;64.08;94537.75;4992846;28;20244;-47
2023/03/03 04:01:33;;;;;;;3.57;3.17;;;;;;;9.96;64.11;94536.00;4992160;28;20181;-51
2023/03/03 04:04:00;;;;;;;3.27;3.07;;;;;;;9.96;64.01;94528.31;4992313;28;20188;-48
2023/03/03 04:06:26;;;;;;;3.83;2.93;;;;;;;9.96;64.21;94533.44;4992305;28;20567;-54
2023/03/03 04:08:55;;;;;;;3.57;3.27;;;;;;;9.95;64.02;94531.84;4992487;28;20615;-48
2023/03/03 04:11:22;;;;;;;3.43;3.13;;;;;;;9.95;64.13;94533.59;4991738;28;20602;-53
2023/03/03 04:13:49;;;;;;;3.33;3.00;;;;;;;9.94;64.32;94530.22;4992388;28;20275;-51
2023/03/03 04:16:16;;;;;;;3.20;2.90;;;;;;;9.95;64.48;94531.03;4992090;28;20201;-49
2023/03/03 04:18:43;;;;;;;3.90;3.40;;;;;;;9.94;64.12;94537.09;4991957;28;20189;-48
2023/03/03 04:21:12;;;;;;;3.77;3.37;;;;;;;9.95;64.38;94536.13;4991545;28;20200;-49
2023/03/03 04:23:39;;;;;;;4.07;3.27;;;;;;;9.94;64.32;94537.88;4992358;28;20193;-55
2023/03/03 04:26:08;;;;;;;4.23;3.43;;;;;;;9.95;64.47;94536.13;4992179;28;20581;-52
2023/03/03 04:28:35;;;;;;;3.27;2.97;;;;;;;9.95;64.20;94531.03;4992007;28;20197;-51
2023/03/03 04:31:02;;;;;;;3.63;3.33;;;;;;;9.95;64.12;94531.84;4991775;28;20193;-49
2023/03/03 04:33:28;;;;;;;2.97;2.77;;;;;;;9.95;64.17;94531.03;4991187;28;20209;-51
2023/03/03 04:35:55;;;;;;;3.50;3.20;;;;;;;9.95;64.27;94529.28;4991742;28;20657;-48
2023/03/03 04:38:22;;;;;;;4.03;3.50;;;;;;;9.95;64.27;94529.28;4991859;28;20192;-51
2023/03/03 04:40:49;;;;;;;3.43;3.13;;;;;;;9.95;64.30;94531.84;4992023;28;20186;-51
2023/03/03 04:43:17;;;;;;;3.50;3.10;;;;;;;9.95;64.40;94526.72;4991127;28;20185;-50
2023/03/03 04:45:44;;;;;;;3.90;3.10;;;;;;;9.87;64.56;94518.94;4991781;28;20204;-51
2023/03/03 04:48:11;;;;;;;3.63;3.33;;;;;;;9.97;64.35;94529.13;4991666;28;20201;-51
2023/03/03 04:50:38;;;;;;;3.40;3.10;;;;;;;9.97;64.48;94531.69;4991360;28;20192;-52
2023/03/03 04:53:05;;;;;;;3.37;3.07;;;;;;;9.97;64.36;94526.56;4991194;28;20229;-51
2023/03/03 04:55:32;;;;;;;3.27;2.97;;;;;;;9.97;64.16;94535.06;4991347;28;20747;-50
2023/03/03 04:57:59;;;;;;;5.67;3.83;;;;;;;9.97;64.42;94532.50;4991197;28;20190;-48
2023/03/03 05:00:27;;;;;;;4.40;3.57;;;;;;;9.97;64.24;94535.06;4991971;28;20645;-53
2023/03/03 05:02:54;;;;;;;4.07;3.67;;;;;;;9.97;64.40;94534.25;4991721;28;20197;-49
2023/03/03 05:05:20;;;;;;;3.70;3.10;;;;;;;9.96;64.36;94536.00;4991258;28;20189;-52
2023/03/03 05:07:47;;;;;;;3.50;3.20;;;;;;;9.97;64.40;94534.25;4991299;28;20661;-49
2023/03/03 05:10:14;;;;;;;3.97;3.43;;;;;;;9.98;64.51;94536.66;4991128;28;20193;-53
2023/03/03 05:12:41;;;;;;;4.00;3.60;;;;;;;9.99;64.48;94537.47;4991605;28;20231;-48
2023/03/03 05:15:08;;;;;;;4.17;3.73;;;;;;;10.00;64.52;94536.53;4990967;28;20204;-53
2023/03/03 05:17:37;;;;;;;5.03;4.13;;;;;;;10.02;64.50;94538.00;4991427;28;20525;-53
2023/03/03 05:20:07;;;;;;;3.40;3.10;;;;;;;10.01;64.48;94536.38;4990801;28;20742;-49
2023/03/03 05:22:34;;;;;;;4.30;3.83;;;;;;;10.08;64.42;94543.50;4987835;28;20586;-47
2023/03/03 05:25:00;;;;;;;4.87;3.70;;;;;;;10.09;64.42;94543.34;4990642;28;20776;-50
2023/03/03 05:27:27;;;;;;;4.53;3.50;;;;;;;10.11;64.26;94548.34;4991123;28;20204;-49
2023/03/03 05:29:54;;;;;;;4.53;3.50;;;;;;;10.14;64.32;94548.06;4991219;28;20208;-48
2023/03/03 05:32:21;;;;;;;3.63;3.33;;;;;;;10.16;64.31;94541.88;4990721;28;20224;-51
2023/03/03 05:34:49;;;;;;;3.80;3.40;;;;;;;10.18;64.38;94542.53;4990917;28;20233;-49
2023/03/03 05:37:16;;;;;;;3.60;3.30;;;;;;;10.22;64.43;94548.97;4990396;28;20219;-53
2023/03/03 05:39:44;;;;;;;4.73;3.83;;;;;;;10.23;64.49;94548.03;4990859;28;20193;-47
2023/03/03 05:42:12;;;;;;;3.73;3.43;;;;;;;10.25;64.06;94543.63;4990454;28;20221;-49
2023/03/03 05:44:39;;;;;;;4.73;3.60;;;;;;;10.28;64.12;94550.22;4990502;28;20271;-48
2023/03/03 05:47:05;;;;;;;4.33;3.40;;;;;;;10.30;64.29;94555.97;4990170;28;20498;-51
2023/03/03 05:49:32;;;;;;;4.37;3.97;;;;;;;10.32;64.10;94555.81;4990787;28;20189;-52
2023/03/03 05:52:00;;;;;;;5.07;3.93;;;;;;;10.34;64.12;94559.06;4990744;28;20193;-49
2023/03/03 05:54:27;;;;;;;4.23;3.80;;;;;;;10.36;64.31;94562.28;4990632;28;20233;-53
2023/03/03 05:56:56;;;;;;;4.50;4.10;;;;;;;10.40;64.67;94558.50;4990271;28;20189;-53
2023/03/03 05:59:23;;;;;;;4.33;3.80;;;;;;;10.40;64.36;94551.63;4990562;28;20186;-56
2023/03/03 06:01:50;;;;;;;5.40;3.90;;;;;;;10.45;64.28;94551.25;4990037;28;20689;-56
2023/03/03 06:04:17;;;;;;;4.87;4.10;;;;;;;10.48;64.14;94558.59;4990619;28;20201;-53
2023/03/03 06:06:43;;;;;;;4.40;4.00;;;;;;;10.48;64.35;94544.06;4990413;28;20301;-55
2023/03/03 06:09:12;;;;;;;3.97;3.67;;;;;;;10.53;63.87;94552.16;4989858;28;20189;-54
2023/03/03 06:11:38;;;;;;;4.93;4.17;;;;;;;10.54;64.17;94553.75;4989823;28;20653;-54
2023/03/03 06:14:05;;;;;;;4.20;3.80;;;;;;;10.59;63.93;94550.78;4990470;28;20225;-55
2023/03/03 06:16:32;;;;;;;4.53;3.73;;;;;;;10.60;63.95;94552.38;4990373;28;20196;-55
2023/03/03 06:18:59;;;;;;;4.57;3.83;;;;;;;10.62;64.02;94557.34;4989890;28;20286;-52
2023/03/03 06:21:26;;;;;;;4.73;3.70;;;;;;;10.63;64.01;94557.22;4990530;28;20752;-54
2023/03/03 06:23:53;;;;;;;5.23;3.70;;;;;;;10.65;64.01;94568.09;4989899;28;20197;-55
2023/03/03 06:26:22;;;;;;;4.77;4.07;;;;;;;10.67;63.99;94568.78;4990347;28;20188;-53
2023/03/03 06:28:52;;;;;;;6.03;4.03;;;;;;;10.70;63.96;94567.66;4989805;28;20204;-51
2023/03/03 06:31:19;;;;;;;4.80;4.03;;;;;;;10.71;63.85;94562.44;4990313;28;20223;-54
2023/03/03 06:33:46;;;;;;;4.57;4.07;;;;;;;10.72;63.93;94570.91;4990097;28;20233;-52
2023/03/03 06:36:13;;;;;;;4.17;3.47;;;;;;;10.73;64.08;94564.84;4990543;28;20248;-51
2023/03/03 06:38:40;;;;;;;4.37;3.97;;;;;;;10.71;63.84;94559.06;4989837;28;20204;-53
2023/03/03 06:41:07;;;;;;;4.33;3.90;;;;;;;10.74;63.70;94566.44;4990510;28;20213;-56
2023/03/03 06:43:36;;;;;;;7.70;4.00;;;;;;;10.76;63.93;94567.91;4989784;28;20280;-50
2023/03/03 06:46:03;;;;;;;4.93;4.40;;;;;;;10.78;63.87;94567.78;4989935;28;20201;-50
2023/03/03 06:48:31;;;;;;;5.00;4.13;;;;;;;10.80;63.91;94571.81;4990061;28;20188;-55
2023/03/03 06:50:59;;;;;;;5.33;4.40;;;;;;;10.82;63.75;94565.75;4990372;28;20262;-54
2023/03/03 06:53:26;;;;;;;4.50;4.10;;;;;;;10.85;63.72;94568.03;4989370;28;20216;-54
2023/03/03 06:55:55;;;;;;;4.53;4.07;;;;;;;10.79;63.71;94551.47;4996261;28;20233;-54
2023/03/03 06:58:23;;;;;;;4.73;4.23;;;;;;;10.94;63.58;94567.16;4996476;28;20231;-50
2023/03/03 07:00:55;;;;;;;5.00;4.30;;;;;;;10.98;63.71;94571.03;4996495;28;20275;-53
2023/03/03 07:03:24;;;;;;;5.70;4.13;;;;;;;10.99;63.30;94568.34;4996051;28;20185;-53
2023/03/03 07:05:52;;;;;;;4.87;4.10;;;;;;;11.07;63.67;94579.63;4996294;28;20569;-52
2023/03/03 07:08:21;;;;;;;9.13;5.23;;;;;;;11.10;63.52;94571.66;4996228;28;20228;-52
2023/03/03 07:10:49;;;;;;;5.47;4.40;;;;;;;11.17;63.52;94573.47;4996623;28;20756;-52
2023/03/03 07:13:21;;;;;;;5.60;4.00;;;;;;;11.25;63.48;94578.69;4996415;28;20209;-53
2023/03/03 07:15:49;;;;;;;5.27;4.63;;;;;;;11.28;63.41;94578.41;4996329;28;20696;-53
2023/03/03 07:18:34;;;;;;;6.13;4.80;;;;;;;11.35;63.15;94580.38;4996742;28;20397;-56
2023/03/03 07:21:13;;;;;;;4.20;3.80;;;;;;;11.35;63.12;94575.25;4996155;28;20685;-52
2023/03/03 07:23:42;;;;;;;7.23;3.70;;;;;;;11.96;90.22;94571.97;4995101;28;20228;-51
2023/03/03 07:26:13;;;;;;;4.43;3.17;;;;;;;12.83;91.04;94568.47;4996642;28;20208;-48
2023/03/03 07:28:42;;;;;;;14.93;3.57;;;;;;;13.65;88.66;94573.84;4991521;28;20204;-50
2023/03/03 07:31:26;;;;;;;9.03;3.10;;;;;;;14.42;84.88;94575.09;4974716;28;20201;-54
2023/03/03 07:33:55;;;;;;;3.20;2.90;;;;;;;15.00;81.70;94563.66;4986370;28;20342;-52
2023/03/03 07:36:28;;;;;;;8.67;2.97;;;;;;;15.52;79.12;94563.06;4993731;28;20197;-55
2023/03/03 07:38:58;;;;;;;5.60;2.70;;;;;;;16.01;77.11;94569.66;4993139;28;20209;-53
2023/03/03 07:41:25;;;;;;;4.13;2.87;;;;;;;16.40;74.97;94569.47;4993528;28;20649;-56
2023/03/03 07:43:54;;;;;;;7.13;3.77;;;;;;;16.70;73.79;94572.06;4993549;28;20185;-55
2023/03/03 07:46:41;;;;;;;8.60;2.97;;;;;;;16.67;72.15;94572.44;4993752;28;20673;-53
2023/03/03 07:49:22;;;;;;;7.23;4.30;;;;;;;16.49;70.75;94567.63;4993704;28;20189;-52
2023/03/03 07:51:54;;;;;;;4.17;3.30;;;;;;;16.27;70.07;94572.66;4993419;28;20199;-52
2023/03/03 07:54:31;;;;;;;3.87;3.50;;;;;;;16.02;69.20;94569.50;4993193;28;20249;-55
2023/03/03 07:57:06;;;;;;;3.63;3.33;;;;;;;15.82;68.78;94565.78;4994055;28;20207;-53
2023/03/03 07:59:36;;;;;;;4.23;3.60;;;;;;;15.62;68.57;94570.56;4993752;28;20196;-54
2023/03/03 08:02:09;;;;;;;4.67;3.70;;;;;;;15.43;67.96;94571.03;4993587;28;20595;-51
2023/03/03 08:04:41;;;;;;;4.30;3.80;;;;;;;15.23;67.57;94568.06;4993547;28;20205;-57
2023/03/03 08:07:15;;;;;;;5.27;4.13;;;;;;;15.03;67.15;94553.03;4990389;28;20466;-55
2023/03/03 08:09:49;;;;;;;5.13;3.33;;;;;;;14.91;67.05;94561.31;4990627;28;20700;-51
2023/03/03 08:12:39;;;;;;;9.17;3.87;;;;;;;14.75;66.61;94564.72;4990194;28;20208;-54
2023/03/03 08:15:22;;;;;;;4.33;3.93;;;;;;;14.62;66.36;94567.03;4990905;28;20220;-56
2023/03/03 08:17:51;;;;;;;6.73;4.00;;;;;;;14.50;65.91;94564.00;4990673;28;20204;-54
2023/03/03 08:20:43;;;;;;;4.83;3.90;;;;;;;14.38;65.64;94560.97;4990355;28;20193;-52
2023/03/03 08:23:10;;;;;;;4.50;4.10;;;;;;;14.29;65.46;94562.75;4990519;28;20204;-51
2023/03/03 08:25:37;;;;;;;5.03;4.47;;;;;;;14.21;65.20;94560.19;4989610;28;20196;-58
2023/03/03 08:28:04;;;;;;;4.57;4.17;;;;;;;14.14;64.84;94559.22;4989343;28;20666;-49
2023/03/03 08:30:31;;;;;;;4.57;4.07;;;;;;;14.07;65.05;94553.09;4989923;28;20189;-51
2023/03/03 08:32:58;;;;;;;5.43;4.37;;;;;;;14.01;64.75;94548.63;4990207;28;20216;-49
2023/03/03 08:35:25;;;;;;;5.50;4.97;;;;;;;13.95;64.67;94551.84;4990105;28;20275;-52
2023/03/03 08:37:53;;;;;;;9.80;4.27;;;;;;;13.91;64.60;94556.50;4989367;28;20208;-52
2023/03/03 08:40:20;;;;;;;5.40;4.60;;;;;;;13.87;64.35;94555.22;4989432;28;20193;-53
2023/03/03 08:42:47;;;;;;;5.87;4.17;;;;;;;13.84;64.14;94547.03;4990226;28;20189;-55
2023/03/03 08:45:14;;;;;;;5.07;4.57;;;;;;;13.86;63.85;94547.66;4989378;28;20204;-52
2023/03/03 08:47:42;;;;;;;6.93;5.07;;;;;;;14.28;74.57;94555.16;4989333;28;20212;-53
2023/03/03 08:50:09;;;;;;;6.97;5.10;;;;;;;14.45;71.88;94553.38;4989334;28;20254;-50
2023/03/03 08:52:36;;;;;;;5.90;4.90;;;;;;;14.48;70.41;94553.03;4988544;28;20193;-49
2023/03/03 08:55:04;;;;;;;6.93;5.07;;;;;;;14.45;69.47;94554.16;4997113;28;20267;-48
2023/03/03 08:57:31;;;;;;;4.50;4.10;;;;;;;14.40;68.96;94561.59;4989264;28;20889;-53
2023/03/03 08:59:58;;;;;;;9.10;5.00;;;;;;;14.34;68.33;94554.53;5000257;28;20603;-47
2023/03/03 09:02:25;;;;;;;5.20;4.70;;;;;;;14.28;68.03;94555.16;4991346;28;20610;-49
2023/03/03 09:04:51;;;;;;;7.63;5.43;;;;;;;14.21;67.53;94560.19;4988284;28;20181;-51
2023/03/03 09:07:18;;;;;;;7.80;5.30;;;;;;;14.16;67.39;94559.03;4988794;28;20192;-54
2023/03/03 09:09:45;;;;;;;6.80;5.43;;;;;;;14.11;67.12;94553.59;4988099;28;20197;-53
2023/03/03 09:12:17;;;;;;;6.30;5.67;;;;;;;14.06;66.86;94562.59;4989247;28;20196;-52
2023/03/03 09:14:44;;;;;;;5.17;4.67;;;;;;;14.02;66.44;94552.78;4988488;28;20221;-52
2023/03/03 09:17:26;;;;;;;8.07;5.23;;;;;;;13.98;66.24;94551.50;4987528;28;20205;-50
2023/03/03 09:19:58;;;;;;;5.87;5.37;;;;;;;13.97;65.97;94557.63;4986899;28;20237;-53
2023/03/03 09:22:28;;;;;;;7.10;5.70;;;;;;;13.94;65.83;94551.03;4985578;28;20244;-49
2023/03/03 09:24:58;;;;;;;7.93;5.33;;;;;;;13.92;65.51;94547.03;4987975;28;20215;-52
2023/03/03 09:27:29;;;;;;;7.07;5.63;;;;;;;13.91;65.32;94548.00;4985163;28;20272;-52
2023/03/03 09:29:57;;;;;;;6.43;5.67;;;;;;;13.91;65.02;94551.38;4986851;28;20225;-53
2023/03/03 09:32:33;;;;;;;6.00;5.33;;;;;;;13.91;64.92;94556.50;4983948;28;20208;-48
2023/03/03 09:35:01;;;;;;;8.50;6.77;;;;;;;13.89;64.60;94548.13;4986196;28;20239;-48
2023/03/03 09:37:32;;;;;;;6.33;5.53;;;;;;;13.86;64.64;94553.63;4985521;28;20200;-49
2023/03/03 09:39:59;;;;;;;7.53;5.57;;;;;;;13.85;64.41;94549.41;4985743;28;20208;-49
2023/03/03 09:42:50;;;;;;;7.40;6.23;;;;;;;13.83;64.27;94559.06;4985706;28;20661;-48
2023/03/03 09:45:37;;;;;;;6.87;5.57;;;;;;;13.79;64.30;94550.88;4985596;28;20682;-48
2023/03/03 09:48:30;;;;;;;7.03;5.90;;;;;;;13.76;64.10;94556.34;4985615;28;20622;-49
2023/03/03 09:51:16;;;;;;;7.53;6.63;;;;;;;13.74;64.10;94554.91;4984904;28;20757;-54
2023/03/03 09:53:56;;;;;;;7.87;6.43;;;;;;;13.68;63.92;94556.31;4982763;28;20217;-47
2023/03/03 09:56:28;;;;;;;7.47;6.00;;;;;;;13.63;64.03;94548.28;4982885;28;20200;-51
2023/03/03 09:59:13;;;;;;;7.93;6.47;;;;;;;13.60;63.79;94547.81;4985679;28;20193;-50
2023/03/03 10:02:14;;;;;;;8.00;5.97;;;;;;;13.54;63.73;94550.06;4988010;28;20196;-53
2023/03/03 10:04:59;;;;;;;6.57;5.50;;;;;;;13.52;63.75;94541.72;4889370;29;20207;-53
2023/03/03 10:07:38;;;;;;;8.10;5.37;;;;;;;13.51;63.76;94544.44;4889826;29;20203;-54
2023/03/03 10:10:38;;;;;;;7.10;6.20;;;;;;;13.49;63.79;94546.38;4889700;29;20202;-55
2023/03/03 10:13:18;;;;;;;6.93;6.10;;;;;;;13.46;63.72;94542.34;4903064;29;20931;-52
2023/03/03 10:16:10;;;;;;;6.20;5.37;;;;;;;13.44;63.63;94534.00;4908249;29;20715;-52
2023/03/03 10:18:42;;;;;;;6.80;6.07;;;;;;;13.46;63.58;94544.91;4908370;29;20275;-54
2023/03/03 10:21:11;;;;;;;7.33;5.90;;;;;;;13.47;63.41;94543.97;4907824;29;20219;-52
2023/03/03 10:23:53;;;;;;;6.83;6.10;;;;;;;13.47;63.42;94536.25;4894589;29;20219;-51
2023/03/03 10:26:33;;;;;;;6.83;6.03;;;;;;;13.47;63.34;94532.84;4888612;29;20267;-55
2023/03/03 10:29:15;;;;;;;6.80;6.10;;;;;;;13.45;63.48;94527.91;4888738;29;20291;-52
2023/03/03 10:31:58;;;;;;;9.07;6.60;;;;;;;13.46;63.18;94524.34;4889086;29;20196;-55
2023/03/03 10:34:52;;;;;;;8.03;6.30;;;;;;;13.46;63.28;94532.06;4888951;29;20658;-50
2023/03/03 10:37:26;;;;;;;8.47;6.77;;;;;;;13.46;63.08;94521.78;4889307;29;20752;-51
2023/03/03 10:40:17;;;;;;;8.17;6.17;;;;;;;13.44;63.06;94523.72;4888903;29;20253;-56
2023/03/03 10:43:08;;;;;;;6.73;5.70;;;;;;;13.41;63.10;94523.22;4967967;28;20275;-55
2023/03/03 10:46:03;;;;;;;6.97;6.03;;;;;;;13.39;63.25;94517.47;4967753;28;20197;-53
2023/03/03 10:48:49;;;;;;;7.73;6.67;;;;;;;13.35;63.01;94516.19;4966687;28;20890;-52
2023/03/03 10:51:25;;;;;;;6.70;5.53;;;;;;;13.35;62.99;94521.31;4967381;28;20193;-55
2023/03/03 10:54:03;;;;;;;8.90;6.33;;;;;;;13.34;63.17;94511.97;4967483;28;20681;-51
2023/03/03 10:56:42;;;;;;;6.60;5.60;;;;;;;13.33;63.04;94508.59;4967617;28;20201;-54
2023/03/03 10:59:30;;;;;;;6.93;5.67;;;;;;;13.31;62.92;94513.13;4967988;28;20255;-55
2023/03/03 11:01:59;;;;;;;8.03;6.00;;;;;;;13.28;62.89;94509.09;4967678;28;20193;-54
2023/03/03 11:04:41;;;;;;;6.90;6.10;;;;;;;13.28;62.89;94503.16;4968173;28;20197;-53
2023/03/03 11:07:14;;;;;;;6.87;6.17;;;;;;;13.26;62.82;94507.66;4967584;28;20201;-52
2023/03/03 11:09:57;;;;;;;7.73;6.23;;;;;;;13.23;63.01;94506.19;4967941;28;20220;-50
2023/03/03 11:12:34;;;;;;;6.87;6.17;;;;;;;13.22;62.72;94503.75;4967881;28;20284;-52
2023/03/03 11:15:17;;;;;;;9.37;7.17;;;;;;;13.23;62.87;94492.56;4969523;28;20245;-53
2023/03/03 11:17:57;;;;;;;7.63;6.67;;;;;;;13.24;62.75;94494.16;4970529;28;20202;-55
2023/03/03 11:20:36;;;;;;;8.37;7.37;;;;;;;13.25;62.66;94488.84;4970443;28;20204;-51
2023/03/03 11:23:18;;;;;;;9.13;7.17;;;;;;;13.28;62.72;94488.53;4970181;28;20252;-53
2023/03/03 11:25:51;;;;;;;9.00;6.87;;;;;;;13.24;62.71;94478.75;4970239;28;20197;-54
2023/03/03 11:28:31;;;;;;;8.63;7.17;;;;;;;13.31;62.78;94492.56;4977794;28;20577;-50
2023/03/03 11:31:10;;;;;;;8.67;7.67;;;;;;;13.30;62.86;94494.34;4989371;28;20268;-53
2023/03/03 11:33:45;;;;;;;8.30;6.93;;;;;;;13.29;62.58;94490.16;4989162;28;20200;-50
2023/03/03 11:36:20;;;;;;;9.13;7.70;;;;;;;13.30;62.58;94488.41;4989243;28;20236;-49
2023/03/03 11:38:57;;;;;;;8.80;7.60;;;;;;;13.30;62.72;94489.19;4987724;28;20200;-52
2023/03/03 11:41:31;;;;;;;9.67;7.60;;;;;;;13.32;62.60;94486.47;4989977;28;20199;-54
2023/03/03 11:44:05;;;;;;;9.27;7.97;;;;;;;13.32;62.60;94485.66;4992767;28;20516;-52
2023/03/03 11:46:37;;;;;;;8.83;7.77;;;;;;;13.31;62.56;94482.28;4992543;28;20284;-51
2023/03/03 11:49:09;;;;;;;9.13;8.13;;;;;;;13.32;62.67;94478.75;4992994;28;20185;-51
2023/03/03 11:51:50;;;;;;;10.33;8.20;;;;;;;13.32;62.37;94472.81;4992591;28;20193;-51